Terminal Aerodrome Forecast
Issued by NWS Quad Cities IA IL

Home | Current Version | Previous Version | Text Only | Print | Product List | Glossary On
Versions: 1 2 3 4 5 6 7 8 9 10 11 12 13 14
000
FTUS43 KDVN 290540
TAFDBQ
TAF
KDBQ 290540Z 2906/3006 25003KT P6SM VCSH SCT070 BKN090
      TEMPO 2906/2908 -RA BKN060 OVC100
     FM290800 31006KT P6SM BKN060 BKN200
     FM291700 31012G18KT P6SM FEW050
     FM292300 28006KT P6SM SKC=

USA.gov is the U.S. government's official web portal to all federal, state and local government web resources and services.